Ride Results

Upper Corindi (11-07-2015)
Ride distance: 80.0 km

Outcomes - Upper Corindi (11-07-2015)
Division No. of Entries Retired / DNE Completed Withdrawn Ineligible V/O Percentage Completed
HW 7 - 5 - - 2 71.43%
MW 10 - 7 1 - 2 70.00%
LW 8 - 8 - - - 100.00%
JN 3 - 3 - - - 100.00%
Totals 28 - 23 1 - 4 82.14%
Results - Upper Corindi (11-07-2015)
No. Rider Horse Place Time Leg Speeds Total
Km/Hr
H/R bpm
Heavyweight
25 Matthew Gadsby Ra Silver Dancer 1 (BC) 6:31:00 11.7, 12.9 12.28 38, 42, 47 (Avg:44)
28 Tad Cossins Wollumbin Elle 2 6:59:00 13.8, 9.7 11.46 38, 42, 47 (Avg:44)
4 Steve Broadbent Glendhu Moonshine 3 7:28:00 10.9, 10.5 10.71 40, 46, 48 (Avg:47)
26 Paul Lengronne Aphrodite Malakia 4 7:30:00 11.7, 9.7 10.67 41, 47, 52 (Avg:49)
30 Phil Coleman Rainbows Reach Dark N Stormy 5 7:59:00 10.6, 9.4 10.02 36, 42, 47 (Avg:44)
13 Allan Caslick A'Landell Soul Lame L2 0:00:00 10.9, 9.0 - 33, 35, 42 (Avg:38)
10 Christopher Dart Moonlight Dream Lame P/R 0:00:00 - - 38, 47 (Avg:47)
Middleweight
27 Dean Chamberlain Annordean Balin 1 (BC) 5:29:00 15.8, 13.4 14.59 36, 52, 56 (Avg:54)
11 Narelle Childs Halo Kazaam 2 5:41:00 15.3, 12.9 14.08 36, 44, 51 (Avg:47)
7 Kerrie Ellery Erehwon Park Quiz Master 3 7:27:00 10.9, 10.5 10.74 33, 38, 55 (Avg:46)
2 Tracy Broadbent Splendacrest Grouse 4 7:28:00 10.9, 10.5 10.71 38, 46, 52 (Avg:49)
29 Vicky Shaw Foxridge Elandro 5 7:57:00 11.2, 9.1 10.06 38, 46, 49 (Avg:47)
20 Brad Dillon Raymar Henry 6 8:23:00 10.5, 8.6 9.54 36, 52, 53 (Avg:52)
22 Melanie Anderson Ausden Kon Tiki 7 8:30:00 10.4, 8.5 9.41 37, 41, 59 (Avg:50)
12 Jennifer Caslick Rush Creek Gift Heart Rate L2 0:00:00 10.9, 9.0 - 40, 51, 62 (Avg:56)
14 Michele Ladmore Azale Aladdin Lame L2 0:00:00 10.9, 9.3 - 38, 54, 57 (Avg:55)
24 Marion Lengronne Kalkadoon Vienna Widthdrawn L2 0:00:00 - - 33, 42, 48 (Avg:45)
Lightweight
17 Leah Begley Niarla Elia Shaklan 1 5:43:00 14.9, 13.1 13.99 37, 46, 50 (Avg:48)
6 Carol Layton Omani City Smoke 2 (BC) 6:02:00 14.4, 12.2 13.26 31, 41, 42 (Avg:41)
23 Pip Lillyman Zenith Park Shiloh 3 6:43:00 14.3, 10.1 11.91 29, 44, 47 (Avg:45)
8 Chez Barlow Caramea Jazira 4 6:50:00 10.9, 12.5 11.71 30, 39, 46 (Avg:42)
5 Di Kupsch Fortaleza Ascira 5 6:59:00 12.1, 10.8 11.46 30, 40, 50 (Avg:45)
31 Ros Ryan Rainbows Reach Snowfyre 6 8:00:00 11.6, 8.7 10.00 38, 47, 50 (Avg:48)
21 Emma Broome Raymar Aisha 7 8:23:00 10.5, 8.6 9.54 37, 49, 60 (Avg:54)
19 Anita Rodgers Follydown Kadin 8 8:30:00 10.4, 8.5 9.41 35, 44, 60 (Avg:52)
Junior
15 Scarlet McQueen Kynnum Park Mr Epona 1 5:29:00 15.8, 13.4 14.59 48, 44, 45 (Avg:44)
16 Darcy Begley Shinto 2 5:40:00 14.9, 13.4 14.12 31, 42, 46 (Avg:44)
3 Isabel Foster Sharabel Kalarney 3 (BC) 5:41:00 15.8, 12.6 14.08 41, 47, 48 (Avg:47)